sensor_id;sensor_type;location;lat;lon;timestamp;temperature;humidity
43671;DHT22;29267;50.906;7.248;2023-03-12T00:01:26;0.70;99.90
43671;DHT22;29267;50.906;7.248;2023-03-12T00:03:54;0.70;99.90
43671;DHT22;29267;50.906;7.248;2023-03-12T00:06:20;0.70;99.90
43671;DHT22;29267;50.906;7.248;2023-03-12T00:08:47;0.70;99.90
43671;DHT22;29267;50.906;7.248;2023-03-12T00:11:15;0.70;99.90
43671;DHT22;29267;50.906;7.248;2023-03-12T00:13:42;0.70;99.90
43671;DHT22;29267;50.906;7.248;2023-03-12T00:16:13;0.70;99.90
43671;DHT22;29267;50.906;7.248;2023-03-12T00:18:40;0.70;99.90
43671;DHT22;29267;50.906;7.248;2023-03-12T00:21:06;0.70;99.90
43671;DHT22;29267;50.906;7.248;2023-03-12T00:23:32;0.70;99.90
43671;DHT22;29267;50.906;7.248;2023-03-12T00:26:07;0.70;99.90
43671;DHT22;29267;50.906;7.248;2023-03-12T00:28:34;0.70;99.90
43671;DHT22;29267;50.906;7.248;2023-03-12T00:31:00;0.70;99.90
43671;DHT22;29267;50.906;7.248;2023-03-12T00:33:27;0.70;99.90
43671;DHT22;29267;50.906;7.248;2023-03-12T00:35:54;0.70;99.90
43671;DHT22;29267;50.906;7.248;2023-03-12T00:38:21;0.70;99.90
43671;DHT22;29267;50.906;7.248;2023-03-12T00:40:46;0.80;99.90
43671;DHT22;29267;50.906;7.248;2023-03-12T00:43:12;0.80;99.90
43671;DHT22;29267;50.906;7.248;2023-03-12T00:45:38;0.80;99.90
43671;DHT22;29267;50.906;7.248;2023-03-12T00:48:04;0.80;99.90
43671;DHT22;29267;50.906;7.248;2023-03-12T00:50:30;0.80;99.90
43671;DHT22;29267;50.906;7.248;2023-03-12T00:52:55;0.80;99.90
43671;DHT22;29267;50.906;7.248;2023-03-12T00:55:21;0.80;99.90
43671;DHT22;29267;50.906;7.248;2023-03-12T00:57:47;0.80;99.90
43671;DHT22;29267;50.906;7.248;2023-03-12T01:00:13;0.80;99.90
43671;DHT22;29267;50.906;7.248;2023-03-12T01:02:39;0.80;99.90
43671;DHT22;29267;50.906;7.248;2023-03-12T01:05:06;0.90;99.90
43671;DHT22;29267;50.906;7.248;2023-03-12T01:07:33;0.90;99.90
43671;DHT22;29267;50.906;7.248;2023-03-12T01:09:59;0.90;99.90
43671;DHT22;29267;50.906;7.248;2023-03-12T01:12:25;0.90;99.90
43671;DHT22;29267;50.906;7.248;2023-03-12T01:14:50;0.90;99.90
43671;DHT22;29267;50.906;7.248;2023-03-12T01:17:16;0.90;99.90
43671;DHT22;29267;50.906;7.248;2023-03-12T01:19:41;0.90;99.90
43671;DHT22;29267;50.906;7.248;2023-03-12T01:22:07;1.00;99.90
43671;DHT22;29267;50.906;7.248;2023-03-12T01:24:32;0.90;99.90
43671;DHT22;29267;50.906;7.248;2023-03-12T01:26:58;1.00;99.90
43671;DHT22;29267;50.906;7.248;2023-03-12T01:29:24;1.00;99.90
43671;DHT22;29267;50.906;7.248;2023-03-12T01:31:49;1.00;99.90
43671;DHT22;29267;50.906;7.248;2023-03-12T01:34:16;1.00;99.90
43671;DHT22;29267;50.906;7.248;2023-03-12T01:36:42;1.10;99.90
43671;DHT22;29267;50.906;7.248;2023-03-12T01:39:09;1.00;99.90
43671;DHT22;29267;50.906;7.248;2023-03-12T01:41:35;1.10;99.90
43671;DHT22;29267;50.906;7.248;2023-03-12T01:44:02;1.10;99.90
43671;DHT22;29267;50.906;7.248;2023-03-12T01:46:39;1.00;99.90
43671;DHT22;29267;50.906;7.248;2023-03-12T01:51:42;1.00;99.90
43671;DHT22;29267;50.906;7.248;2023-03-12T01:57:04;1.00;99.90
43671;DHT22;29267;50.906;7.248;2023-03-12T01:59:34;1.00;99.90
43671;DHT22;29267;50.906;7.248;2023-03-12T02:02:02;1.00;99.90
43671;DHT22;29267;50.906;7.248;2023-03-12T02:04:30;1.00;99.90
43671;DHT22;29267;50.906;7.248;2023-03-12T02:09:29;1.00;99.90
43671;DHT22;29267;50.906;7.248;2023-03-12T02:11:55;1.00;99.90
43671;DHT22;29267;50.906;7.248;2023-03-12T02:14:20;0.90;99.90
43671;DHT22;29267;50.906;7.248;2023-03-12T02:16:46;0.90;99.90
43671;DHT22;29267;50.906;7.248;2023-03-12T02:19:31;0.90;99.90
43671;DHT22;29267;50.906;7.248;2023-03-12T02:21:59;0.80;99.90
43671;DHT22;29267;50.906;7.248;2023-03-12T02:27:00;0.70;99.90
43671;DHT22;29267;50.906;7.248;2023-03-12T02:29:28;0.70;99.90
43671;DHT22;29267;50.906;7.248;2023-03-12T02:31:56;0.80;99.90
43671;DHT22;29267;50.906;7.248;2023-03-12T02:34:23;0.80;99.90
43671;DHT22;29267;50.906;7.248;2023-03-12T02:36:49;0.80;99.90
43671;DHT22;29267;50.906;7.248;2023-03-12T02:39:14;0.80;99.90
43671;DHT22;29267;50.906;7.248;2023-03-12T02:41:51;0.90;99.90
43671;DHT22;29267;50.906;7.248;2023-03-12T02:46:48;0.90;99.90
43671;DHT22;29267;50.906;7.248;2023-03-12T02:49:14;1.00;99.90
43671;DHT22;29267;50.906;7.248;2023-03-12T02:51:41;1.00;99.90
43671;DHT22;29267;50.906;7.248;2023-03-12T02:54:08;1.00;99.90
43671;DHT22;29267;50.906;7.248;2023-03-12T02:56:33;1.00;99.90
43671;DHT22;29267;50.906;7.248;2023-03-12T02:59:00;1.10;99.90
43671;DHT22;29267;50.906;7.248;2023-03-12T03:01:26;1.10;99.90
43671;DHT22;29267;50.906;7.248;2023-03-12T03:03:51;1.10;99.90
43671;DHT22;29267;50.906;7.248;2023-03-12T03:06:18;1.20;99.90
43671;DHT22;29267;50.906;7.248;2023-03-12T03:08:44;1.30;99.90
43671;DHT22;29267;50.906;7.248;2023-03-12T03:11:10;1.30;99.90
43671;DHT22;29267;50.906;7.248;2023-03-12T03:13:36;1.30;99.90
43671;DHT22;29267;50.906;7.248;2023-03-12T03:16:02;1.30;99.90
43671;DHT22;29267;50.906;7.248;2023-03-12T03:18:28;1.40;99.90
43671;DHT22;29267;50.906;7.248;2023-03-12T03:21:00;1.40;99.90
43671;DHT22;29267;50.906;7.248;2023-03-12T03:23:26;1.40;99.90
43671;DHT22;29267;50.906;7.248;2023-03-12T03:25:51;1.50;99.90
43671;DHT22;29267;50.906;7.248;2023-03-12T03:28:22;1.40;99.90
43671;DHT22;29267;50.906;7.248;2023-03-12T03:30:50;1.40;99.90
43671;DHT22;29267;50.906;7.248;2023-03-12T03:33:16;1.40;99.90
43671;DHT22;29267;50.906;7.248;2023-03-12T03:35:42;1.40;99.90
43671;DHT22;29267;50.906;7.248;2023-03-12T03:38:07;1.40;99.90
43671;DHT22;29267;50.906;7.248;2023-03-12T03:40:33;1.50;99.90
43671;DHT22;29267;50.906;7.248;2023-03-12T03:42:58;1.50;99.90
43671;DHT22;29267;50.906;7.248;2023-03-12T03:45:24;1.40;99.90
43671;DHT22;29267;50.906;7.248;2023-03-12T03:47:50;1.40;99.90
43671;DHT22;29267;50.906;7.248;2023-03-12T03:50:16;1.40;99.90
43671;DHT22;29267;50.906;7.248;2023-03-12T03:52:41;1.40;99.90
43671;DHT22;29267;50.906;7.248;2023-03-12T03:55:07;1.30;99.90
43671;DHT22;29267;50.906;7.248;2023-03-12T03:57:33;1.30;99.90
43671;DHT22;29267;50.906;7.248;2023-03-12T03:59:59;1.30;99.90
43671;DHT22;29267;50.906;7.248;2023-03-12T04:02:25;1.30;99.90
43671;DHT22;29267;50.906;7.248;2023-03-12T04:04:51;1.30;99.90
43671;DHT22;29267;50.906;7.248;2023-03-12T04:07:17;1.30;99.90
43671;DHT22;29267;50.906;7.248;2023-03-12T04:09:43;1.30;99.90
43671;DHT22;29267;50.906;7.248;2023-03-12T04:12:09;1.30;99.90
43671;DHT22;29267;50.906;7.248;2023-03-12T04:14:38;1.40;99.90
43671;DHT22;29267;50.906;7.248;2023-03-12T04:17:04;1.30;99.90
43671;DHT22;29267;50.906;7.248;2023-03-12T04:19:29;1.40;99.90
43671;DHT22;29267;50.906;7.248;2023-03-12T04:21:56;1.40;99.90
43671;DHT22;29267;50.906;7.248;2023-03-12T04:24:21;1.40;99.90
43671;DHT22;29267;50.906;7.248;2023-03-12T04:26:47;1.50;99.90
43671;DHT22;29267;50.906;7.248;2023-03-12T04:29:13;1.50;99.90
43671;DHT22;29267;50.906;7.248;2023-03-12T04:31:38;1.50;99.90
43671;DHT22;29267;50.906;7.248;2023-03-12T04:34:04;1.50;99.90
43671;DHT22;29267;50.906;7.248;2023-03-12T04:36:29;1.50;99.90
43671;DHT22;29267;50.906;7.248;2023-03-12T04:38:55;1.50;99.90
43671;DHT22;29267;50.906;7.248;2023-03-12T04:41:21;1.50;99.90
43671;DHT22;29267;50.906;7.248;2023-03-12T04:43:46;1.60;99.90
43671;DHT22;29267;50.906;7.248;2023-03-12T04:46:12;1.60;99.90
43671;DHT22;29267;50.906;7.248;2023-03-12T04:48:38;1.60;99.90
43671;DHT22;29267;50.906;7.248;2023-03-12T04:51:04;1.50;99.90
43671;DHT22;29267;50.906;7.248;2023-03-12T04:53:29;1.60;99.90
43671;DHT22;29267;50.906;7.248;2023-03-12T04:55:55;1.50;99.90
43671;DHT22;29267;50.906;7.248;2023-03-12T04:58:21;1.50;99.90
43671;DHT22;29267;50.906;7.248;2023-03-12T05:00:48;1.50;99.90
43671;DHT22;29267;50.906;7.248;2023-03-12T05:03:14;1.50;99.90
43671;DHT22;29267;50.906;7.248;2023-03-12T05:05:40;1.50;99.90
43671;DHT22;29267;50.906;7.248;2023-03-12T05:08:05;1.60;99.90
43671;DHT22;29267;50.906;7.248;2023-03-12T05:10:31;1.60;99.90
43671;DHT22;29267;50.906;7.248;2023-03-12T05:12:57;1.70;99.90
43671;DHT22;29267;50.906;7.248;2023-03-12T05:15:23;1.70;99.90
43671;DHT22;29267;50.906;7.248;2023-03-12T05:17:49;1.70;99.90
43671;DHT22;29267;50.906;7.248;2023-03-12T05:20:14;1.70;99.90
43671;DHT22;29267;50.906;7.248;2023-03-12T05:22:42;1.70;99.90
43671;DHT22;29267;50.906;7.248;2023-03-12T05:25:08;1.70;99.90
43671;DHT22;29267;50.906;7.248;2023-03-12T05:27:34;1.70;99.90
43671;DHT22;29267;50.906;7.248;2023-03-12T05:30:00;1.70;99.90
43671;DHT22;29267;50.906;7.248;2023-03-12T05:32:25;1.70;99.90
43671;DHT22;29267;50.906;7.248;2023-03-12T05:34:51;1.60;99.90
43671;DHT22;29267;50.906;7.248;2023-03-12T05:37:17;1.60;99.90
43671;DHT22;29267;50.906;7.248;2023-03-12T05:39:42;1.60;99.90
43671;DHT22;29267;50.906;7.248;2023-03-12T05:42:12;1.60;99.90
43671;DHT22;29267;50.906;7.248;2023-03-12T05:44:37;1.50;99.90
43671;DHT22;29267;50.906;7.248;2023-03-12T05:47:03;1.40;99.90
43671;DHT22;29267;50.906;7.248;2023-03-12T05:49:29;1.40;99.90
43671;DHT22;29267;50.906;7.248;2023-03-12T05:51:55;1.40;99.90
43671;DHT22;29267;50.906;7.248;2023-03-12T05:54:21;1.40;99.90
43671;DHT22;29267;50.906;7.248;2023-03-12T05:56:47;1.40;99.90
43671;DHT22;29267;50.906;7.248;2023-03-12T05:59:12;1.40;99.90
43671;DHT22;29267;50.906;7.248;2023-03-12T06:01:38;1.30;99.90
43671;DHT22;29267;50.906;7.248;2023-03-12T06:04:04;1.30;99.90
43671;DHT22;29267;50.906;7.248;2023-03-12T06:06:32;1.30;99.90
43671;DHT22;29267;50.906;7.248;2023-03-12T06:08:57;1.30;99.90
43671;DHT22;29267;50.906;7.248;2023-03-12T06:11:23;1.30;99.90
43671;DHT22;29267;50.906;7.248;2023-03-12T06:13:48;1.30;99.90
43671;DHT22;29267;50.906;7.248;2023-03-12T06:16:18;1.30;99.90
43671;DHT22;29267;50.906;7.248;2023-03-12T06:18:43;1.30;99.90
43671;DHT22;29267;50.906;7.248;2023-03-12T06:21:13;1.40;99.90
43671;DHT22;29267;50.906;7.248;2023-03-12T06:23:39;1.30;99.90
43671;DHT22;29267;50.906;7.248;2023-03-12T06:26:05;1.40;99.90
43671;DHT22;29267;50.906;7.248;2023-03-12T06:31:01;1.40;99.90
43671;DHT22;29267;50.906;7.248;2023-03-12T06:33:27;1.40;99.90
43671;DHT22;29267;50.906;7.248;2023-03-12T06:35:57;1.40;99.90
43671;DHT22;29267;50.906;7.248;2023-03-12T06:38:23;1.40;99.90
43671;DHT22;29267;50.906;7.248;2023-03-12T06:41:04;1.40;99.90
43671;DHT22;29267;50.906;7.248;2023-03-12T06:43:31;1.50;99.90
43671;DHT22;29267;50.906;7.248;2023-03-12T06:45:58;1.50;99.90
43671;DHT22;29267;50.906;7.248;2023-03-12T06:48:27;1.50;99.90
43671;DHT22;29267;50.906;7.248;2023-03-12T06:50:52;1.60;99.90
43671;DHT22;29267;50.906;7.248;2023-03-12T06:53:19;1.60;99.90
43671;DHT22;29267;50.906;7.248;2023-03-12T06:55:45;1.60;99.90
43671;DHT22;29267;50.906;7.248;2023-03-12T06:58:11;1.60;99.90
43671;DHT22;29267;50.906;7.248;2023-03-12T07:00:37;1.70;99.90
43671;DHT22;29267;50.906;7.248;2023-03-12T07:03:03;1.80;99.90
43671;DHT22;29267;50.906;7.248;2023-03-12T07:05:29;1.80;99.90
43671;DHT22;29267;50.906;7.248;2023-03-12T07:07:55;1.90;99.90
43671;DHT22;29267;50.906;7.248;2023-03-12T07:10:21;2.00;99.90
43671;DHT22;29267;50.906;7.248;2023-03-12T07:12:46;2.10;99.90
43671;DHT22;29267;50.906;7.248;2023-03-12T07:15:12;2.20;99.90
43671;DHT22;29267;50.906;7.248;2023-03-12T07:17:38;2.20;99.90
43671;DHT22;29267;50.906;7.248;2023-03-12T07:20:04;2.20;99.90
43671;DHT22;29267;50.906;7.248;2023-03-12T07:22:30;2.10;99.90
43671;DHT22;29267;50.906;7.248;2023-03-12T07:24:56;2.20;99.90
43671;DHT22;29267;50.906;7.248;2023-03-12T07:27:21;2.20;99.90
43671;DHT22;29267;50.906;7.248;2023-03-12T07:29:47;2.20;99.90
43671;DHT22;29267;50.906;7.248;2023-03-12T07:32:12;2.20;99.90
43671;DHT22;29267;50.906;7.248;2023-03-12T07:34:38;2.20;99.90
43671;DHT22;29267;50.906;7.248;2023-03-12T07:37:04;2.30;99.90
43671;DHT22;29267;50.906;7.248;2023-03-12T07:39:30;2.30;99.90
43671;DHT22;29267;50.906;7.248;2023-03-12T07:41:56;2.30;99.90
43671;DHT22;29267;50.906;7.248;2023-03-12T07:44:21;2.30;99.90
43671;DHT22;29267;50.906;7.248;2023-03-12T07:46:47;2.30;99.90
43671;DHT22;29267;50.906;7.248;2023-03-12T07:49:13;2.30;99.90
43671;DHT22;29267;50.906;7.248;2023-03-12T07:51:39;2.30;99.90
43671;DHT22;29267;50.906;7.248;2023-03-12T07:54:04;2.30;99.90
43671;DHT22;29267;50.906;7.248;2023-03-12T07:56:30;2.40;99.90
43671;DHT22;29267;50.906;7.248;2023-03-12T07:58:56;2.50;99.90
43671;DHT22;29267;50.906;7.248;2023-03-12T08:01:21;2.60;99.90
43671;DHT22;29267;50.906;7.248;2023-03-12T08:03:47;2.60;99.90
43671;DHT22;29267;50.906;7.248;2023-03-12T08:06:13;2.60;99.90
43671;DHT22;29267;50.906;7.248;2023-03-12T08:08:39;2.60;99.90
43671;DHT22;29267;50.906;7.248;2023-03-12T08:11:07;2.70;99.90
43671;DHT22;29267;50.906;7.248;2023-03-12T08:13:34;2.70;99.90
43671;DHT22;29267;50.906;7.248;2023-03-12T08:15:59;2.80;99.90
43671;DHT22;29267;50.906;7.248;2023-03-12T08:18:26;2.80;99.90
43671;DHT22;29267;50.906;7.248;2023-03-12T08:20:52;2.80;99.90
43671;DHT22;29267;50.906;7.248;2023-03-12T08:23:20;2.80;99.90
43671;DHT22;29267;50.906;7.248;2023-03-12T08:25:46;2.90;99.90
43671;DHT22;29267;50.906;7.248;2023-03-12T08:28:14;2.90;99.90
43671;DHT22;29267;50.906;7.248;2023-03-12T08:30:47;3.10;99.90
43671;DHT22;29267;50.906;7.248;2023-03-12T08:33:13;3.20;99.90
43671;DHT22;29267;50.906;7.248;2023-03-12T08:35:39;3.10;99.90
43671;DHT22;29267;50.906;7.248;2023-03-12T08:38:05;3.30;99.90
43671;DHT22;29267;50.906;7.248;2023-03-12T08:40:31;3.20;99.90
43671;DHT22;29267;50.906;7.248;2023-03-12T08:42:56;3.30;99.90
43671;DHT22;29267;50.906;7.248;2023-03-12T08:45:22;3.30;99.90
43671;DHT22;29267;50.906;7.248;2023-03-12T08:47:47;3.30;99.90
43671;DHT22;29267;50.906;7.248;2023-03-12T08:50:14;3.40;99.90
43671;DHT22;29267;50.906;7.248;2023-03-12T08:52:42;3.50;99.90
43671;DHT22;29267;50.906;7.248;2023-03-12T08:55:09;3.50;99.90
43671;DHT22;29267;50.906;7.248;2023-03-12T08:57:34;3.60;99.90
43671;DHT22;29267;50.906;7.248;2023-03-12T09:00:00;3.70;99.90
43671;DHT22;29267;50.906;7.248;2023-03-12T09:02:26;3.80;99.90
43671;DHT22;29267;50.906;7.248;2023-03-12T09:04:53;3.80;99.90
43671;DHT22;29267;50.906;7.248;2023-03-12T09:07:18;3.90;99.90
43671;DHT22;29267;50.906;7.248;2023-03-12T09:09:44;3.80;99.90
43671;DHT22;29267;50.906;7.248;2023-03-12T09:12:10;4.00;99.90
43671;DHT22;29267;50.906;7.248;2023-03-12T09:14:36;4.20;99.90
43671;DHT22;29267;50.906;7.248;2023-03-12T09:17:02;4.20;99.90
43671;DHT22;29267;50.906;7.248;2023-03-12T09:19:27;4.30;99.90
43671;DHT22;29267;50.906;7.248;2023-03-12T09:21:53;4.40;99.90
43671;DHT22;29267;50.906;7.248;2023-03-12T09:24:19;4.30;99.90
43671;DHT22;29267;50.906;7.248;2023-03-12T09:26:45;4.40;99.90
43671;DHT22;29267;50.906;7.248;2023-03-12T09:29:10;4.40;99.90
43671;DHT22;29267;50.906;7.248;2023-03-12T09:31:36;4.30;99.90
43671;DHT22;29267;50.906;7.248;2023-03-12T09:34:02;4.30;99.90
43671;DHT22;29267;50.906;7.248;2023-03-12T09:36:28;4.30;99.90
43671;DHT22;29267;50.906;7.248;2023-03-12T09:38:54;4.20;99.90
43671;DHT22;29267;50.906;7.248;2023-03-12T09:41:25;4.30;99.90
43671;DHT22;29267;50.906;7.248;2023-03-12T09:46:27;4.40;99.90
43671;DHT22;29267;50.906;7.248;2023-03-12T09:48:56;4.30;99.90
43671;DHT22;29267;50.906;7.248;2023-03-12T09:51:32;4.40;99.90
43671;DHT22;29267;50.906;7.248;2023-03-12T09:54:05;4.30;99.90
43671;DHT22;29267;50.906;7.248;2023-03-12T09:56:32;4.40;99.90
43671;DHT22;29267;50.906;7.248;2023-03-12T09:58:58;4.50;99.90
43671;DHT22;29267;50.906;7.248;2023-03-12T10:04:29;4.50;99.90
43671;DHT22;29267;50.906;7.248;2023-03-12T10:09:43;4.60;99.90
43671;DHT22;29267;50.906;7.248;2023-03-12T10:12:28;4.60;99.90
43671;DHT22;29267;50.906;7.248;2023-03-12T10:17:41;4.60;99.90
43671;DHT22;29267;50.906;7.248;2023-03-12T10:23:19;4.70;99.90
43671;DHT22;29267;50.906;7.248;2023-03-12T10:25:49;4.90;99.90
43671;DHT22;29267;50.906;7.248;2023-03-12T10:28:21;5.00;99.90
43671;DHT22;29267;50.906;7.248;2023-03-12T10:30:56;5.00;99.90
43671;DHT22;29267;50.906;7.248;2023-03-12T10:33:32;5.10;99.90
43671;DHT22;29267;50.906;7.248;2023-03-12T10:36:17;5.00;99.90
43671;DHT22;29267;50.906;7.248;2023-03-12T10:38:45;5.10;99.90
43671;DHT22;29267;50.906;7.248;2023-03-12T10:41:28;5.30;99.90
43671;DHT22;29267;50.906;7.248;2023-03-12T10:44:06;5.30;99.90
43671;DHT22;29267;50.906;7.248;2023-03-12T10:46:50;5.40;99.90
43671;DHT22;29267;50.906;7.248;2023-03-12T10:49:23;5.30;99.90
43671;DHT22;29267;50.906;7.248;2023-03-12T10:52:14;5.30;99.90
43671;DHT22;29267;50.906;7.248;2023-03-12T10:54:41;5.40;99.90
43671;DHT22;29267;50.906;7.248;2023-03-12T10:57:10;5.30;99.90
43671;DHT22;29267;50.906;7.248;2023-03-12T10:59:41;5.20;99.90
43671;DHT22;29267;50.906;7.248;2023-03-12T11:02:25;5.20;99.90
43671;DHT22;29267;50.906;7.248;2023-03-12T11:04:53;5.20;99.90
43671;DHT22;29267;50.906;7.248;2023-03-12T11:07:31;5.20;99.90
43671;DHT22;29267;50.906;7.248;2023-03-12T11:12:34;5.20;99.90
43671;DHT22;29267;50.906;7.248;2023-03-12T11:15:22;5.20;99.90
43671;DHT22;29267;50.906;7.248;2023-03-12T11:17:48;5.30;99.90
43671;DHT22;29267;50.906;7.248;2023-03-12T11:20:24;5.40;99.90
43671;DHT22;29267;50.906;7.248;2023-03-12T11:22:50;5.40;99.90
43671;DHT22;29267;50.906;7.248;2023-03-12T11:25:34;5.40;99.90
43671;DHT22;29267;50.906;7.248;2023-03-12T11:28:00;5.40;99.90
43671;DHT22;29267;50.906;7.248;2023-03-12T11:30:39;5.50;99.90
43671;DHT22;29267;50.906;7.248;2023-03-12T11:33:04;5.60;99.90
43671;DHT22;29267;50.906;7.248;2023-03-12T11:35:44;5.60;99.90
43671;DHT22;29267;50.906;7.248;2023-03-12T11:38:18;5.70;99.90
43671;DHT22;29267;50.906;7.248;2023-03-12T11:41:18;5.70;99.90
43671;DHT22;29267;50.906;7.248;2023-03-12T11:49:43;5.80;99.90
43671;DHT22;29267;50.906;7.248;2023-03-12T12:10:36;6.40;99.90
43671;DHT22;29267;50.906;7.248;2023-03-12T12:19:38;6.90;99.90
43671;DHT22;29267;50.906;7.248;2023-03-12T12:21:52;6.90;99.90
43671;DHT22;29267;50.906;7.248;2023-03-12T12:27:28;7.20;99.90
43671;DHT22;29267;50.906;7.248;2023-03-12T12:30:06;7.30;99.90
43671;DHT22;29267;50.906;7.248;2023-03-12T12:32:57;7.30;99.90
43671;DHT22;29267;50.906;7.248;2023-03-12T12:35:35;7.30;99.90
43671;DHT22;29267;50.906;7.248;2023-03-12T12:40:53;7.30;99.90
43671;DHT22;29267;50.906;7.248;2023-03-12T12:45:50;7.80;99.90
43671;DHT22;29267;50.906;7.248;2023-03-12T12:48:21;8.20;99.90
43671;DHT22;29267;50.906;7.248;2023-03-12T12:50:48;8.50;99.90
43671;DHT22;29267;50.906;7.248;2023-03-12T12:56:12;9.20;99.90
43671;DHT22;29267;50.906;7.248;2023-03-12T13:01:17;9.70;99.90
43671;DHT22;29267;50.906;7.248;2023-03-12T13:03:45;9.70;99.90
43671;DHT22;29267;50.906;7.248;2023-03-12T13:06:11;9.80;99.90
43671;DHT22;29267;50.906;7.248;2023-03-12T13:13:47;10.30;99.90
43671;DHT22;29267;50.906;7.248;2023-03-12T13:16:50;10.30;99.90
43671;DHT22;29267;50.906;7.248;2023-03-12T13:19:25;10.20;99.90
43671;DHT22;29267;50.906;7.248;2023-03-12T13:25:09;9.90;99.90
43671;DHT22;29267;50.906;7.248;2023-03-12T13:27:39;10.00;99.90
43671;DHT22;29267;50.906;7.248;2023-03-12T13:40:38;10.20;99.90
43671;DHT22;29267;50.906;7.248;2023-03-12T13:45:54;10.00;99.90
43671;DHT22;29267;50.906;7.248;2023-03-12T13:48:20;10.00;99.90
43671;DHT22;29267;50.906;7.248;2023-03-12T13:50:54;9.90;99.90
43671;DHT22;29267;50.906;7.248;2023-03-12T13:53:40;9.90;99.90
43671;DHT22;29267;50.906;7.248;2023-03-12T13:56:11;10.00;99.90
43671;DHT22;29267;50.906;7.248;2023-03-12T13:58:53;10.10;99.90
43671;DHT22;29267;50.906;7.248;2023-03-12T14:01:23;10.20;99.90
43671;DHT22;29267;50.906;7.248;2023-03-12T14:04:00;10.20;99.90
43671;DHT22;29267;50.906;7.248;2023-03-12T14:06:28;10.30;99.90
43671;DHT22;29267;50.906;7.248;2023-03-12T14:09:16;10.30;99.90
43671;DHT22;29267;50.906;7.248;2023-03-12T14:17:25;10.40;99.90
43671;DHT22;29267;50.906;7.248;2023-03-12T14:20:01;10.40;99.90
43671;DHT22;29267;50.906;7.248;2023-03-12T14:22:31;10.30;99.90
43671;DHT22;29267;50.906;7.248;2023-03-12T14:25:21;10.20;99.90
43671;DHT22;29267;50.906;7.248;2023-03-12T14:27:50;10.10;99.90
43671;DHT22;29267;50.906;7.248;2023-03-12T14:30:22;10.10;99.90
43671;DHT22;29267;50.906;7.248;2023-03-12T14:32:51;10.00;99.90
43671;DHT22;29267;50.906;7.248;2023-03-12T14:35:21;10.10;99.90
43671;DHT22;29267;50.906;7.248;2023-03-12T14:38:05;10.10;99.90
43671;DHT22;29267;50.906;7.248;2023-03-12T14:40:36;10.10;99.90
43671;DHT22;29267;50.906;7.248;2023-03-12T14:43:18;10.10;99.90
43671;DHT22;29267;50.906;7.248;2023-03-12T14:45:44;10.20;99.90
43671;DHT22;29267;50.906;7.248;2023-03-12T14:48:09;10.20;99.90
43671;DHT22;29267;50.906;7.248;2023-03-12T14:50:38;10.30;99.90
43671;DHT22;29267;50.906;7.248;2023-03-12T14:53:27;10.40;99.90
43671;DHT22;29267;50.906;7.248;2023-03-12T14:56:07;10.50;99.90
43671;DHT22;29267;50.906;7.248;2023-03-12T14:58:34;10.60;99.90
43671;DHT22;29267;50.906;7.248;2023-03-12T15:01:06;10.70;99.90
43671;DHT22;29267;50.906;7.248;2023-03-12T15:03:40;10.70;99.90
43671;DHT22;29267;50.906;7.248;2023-03-12T15:08:54;10.80;99.90
43671;DHT22;29267;50.906;7.248;2023-03-12T15:11:22;10.70;99.90
43671;DHT22;29267;50.906;7.248;2023-03-12T15:13:50;10.70;99.90
43671;DHT22;29267;50.906;7.248;2023-03-12T15:16:17;10.60;99.90
43671;DHT22;29267;50.906;7.248;2023-03-12T15:18:43;10.50;99.90
43671;DHT22;29267;50.906;7.248;2023-03-12T15:21:10;10.50;99.90
43671;DHT22;29267;50.906;7.248;2023-03-12T15:23:44;10.50;99.90
43671;DHT22;29267;50.906;7.248;2023-03-12T15:28:36;10.60;99.90
43671;DHT22;29267;50.906;7.248;2023-03-12T15:33:36;10.70;99.90
43671;DHT22;29267;50.906;7.248;2023-03-12T15:36:21;10.70;99.90
43671;DHT22;29267;50.906;7.248;2023-03-12T15:39:25;10.60;99.90
43671;DHT22;29267;50.906;7.248;2023-03-12T15:41:52;10.50;99.90
43671;DHT22;29267;50.906;7.248;2023-03-12T15:44:21;10.50;99.90
43671;DHT22;29267;50.906;7.248;2023-03-12T15:46:49;10.40;99.90
43671;DHT22;29267;50.906;7.248;2023-03-12T15:49:25;10.30;99.90
43671;DHT22;29267;50.906;7.248;2023-03-12T15:51:59;10.30;99.90
43671;DHT22;29267;50.906;7.248;2023-03-12T15:54:27;10.20;99.90
43671;DHT22;29267;50.906;7.248;2023-03-12T15:56:53;10.20;99.90
43671;DHT22;29267;50.906;7.248;2023-03-12T15:59:24;10.30;99.90
43671;DHT22;29267;50.906;7.248;2023-03-12T16:01:55;10.30;99.90
43671;DHT22;29267;50.906;7.248;2023-03-12T16:04:22;10.20;99.90
43671;DHT22;29267;50.906;7.248;2023-03-12T16:06:49;10.20;99.90
43671;DHT22;29267;50.906;7.248;2023-03-12T16:09:17;10.20;99.90
43671;DHT22;29267;50.906;7.248;2023-03-12T16:11:44;10.20;99.90
43671;DHT22;29267;50.906;7.248;2023-03-12T16:16:49;10.20;99.90
43671;DHT22;29267;50.906;7.248;2023-03-12T16:19:17;10.10;99.90
43671;DHT22;29267;50.906;7.248;2023-03-12T16:21:43;10.10;99.90
43671;DHT22;29267;50.906;7.248;2023-03-12T16:24:10;10.10;99.90
43671;DHT22;29267;50.906;7.248;2023-03-12T16:26:48;10.00;99.90
43671;DHT22;29267;50.906;7.248;2023-03-12T16:29:16;9.90;99.90
43671;DHT22;29267;50.906;7.248;2023-03-12T16:31:42;9.90;99.90
43671;DHT22;29267;50.906;7.248;2023-03-12T16:34:10;9.90;99.90
43671;DHT22;29267;50.906;7.248;2023-03-12T16:36:35;9.90;99.90
43671;DHT22;29267;50.906;7.248;2023-03-12T16:39:01;9.90;99.90
43671;DHT22;29267;50.906;7.248;2023-03-12T16:41:27;9.90;99.90
43671;DHT22;29267;50.906;7.248;2023-03-12T16:43:53;9.90;99.90
43671;DHT22;29267;50.906;7.248;2023-03-12T16:46:21;9.80;99.90
43671;DHT22;29267;50.906;7.248;2023-03-12T16:48:51;9.80;99.90
43671;DHT22;29267;50.906;7.248;2023-03-12T16:51:18;9.80;99.90
43671;DHT22;29267;50.906;7.248;2023-03-12T16:53:44;9.70;99.90
43671;DHT22;29267;50.906;7.248;2023-03-12T16:56:15;9.70;99.90
43671;DHT22;29267;50.906;7.248;2023-03-12T16:58:41;9.70;99.90
43671;DHT22;29267;50.906;7.248;2023-03-12T17:01:15;9.70;99.90
43671;DHT22;29267;50.906;7.248;2023-03-12T17:03:42;9.60;99.90
43671;DHT22;29267;50.906;7.248;2023-03-12T17:06:16;9.60;99.90
43671;DHT22;29267;50.906;7.248;2023-03-12T17:08:42;9.50;99.90
43671;DHT22;29267;50.906;7.248;2023-03-12T17:11:17;9.50;99.90
43671;DHT22;29267;50.906;7.248;2023-03-12T17:13:46;9.50;99.90
43671;DHT22;29267;50.906;7.248;2023-03-12T17:16:12;9.40;99.90
43671;DHT22;29267;50.906;7.248;2023-03-12T17:18:39;9.40;99.90
43671;DHT22;29267;50.906;7.248;2023-03-12T17:21:05;9.40;99.90
43671;DHT22;29267;50.906;7.248;2023-03-12T17:23:31;9.30;99.90
43671;DHT22;29267;50.906;7.248;2023-03-12T17:25:57;9.30;99.90
43671;DHT22;29267;50.906;7.248;2023-03-12T17:28:23;9.20;99.90
43671;DHT22;29267;50.906;7.248;2023-03-12T17:30:49;9.20;99.90
43671;DHT22;29267;50.906;7.248;2023-03-12T17:33:16;9.20;99.90
43671;DHT22;29267;50.906;7.248;2023-03-12T17:35:43;9.20;99.90
43671;DHT22;29267;50.906;7.248;2023-03-12T17:38:09;9.30;99.90
43671;DHT22;29267;50.906;7.248;2023-03-12T17:40:39;9.30;99.90
43671;DHT22;29267;50.906;7.248;2023-03-12T17:43:05;9.20;99.90
43671;DHT22;29267;50.906;7.248;2023-03-12T17:45:30;9.20;99.90